createdAt,value
2022-08-20T00:00:48.958Z,15.40
2022-08-20T00:03:27.896Z,15.40
2022-08-20T00:05:59.897Z,15.40
2022-08-20T00:08:28.056Z,15.40
2022-08-20T00:10:56.040Z,15.40
2022-08-20T00:13:30.404Z,15.40
2022-08-20T00:15:57.797Z,15.40
2022-08-20T00:18:24.895Z,15.20
2022-08-20T00:20:54.311Z,15.20
2022-08-20T00:23:22.234Z,15.20
2022-08-20T00:25:49.361Z,15.20
2022-08-20T00:28:16.699Z,15.20
2022-08-20T00:30:45.137Z,15.30
2022-08-20T00:33:15.750Z,15.20
2022-08-20T00:35:47.028Z,15.20
2022-08-20T00:38:14.313Z,15.20
2022-08-20T00:40:49.298Z,15.10
2022-08-20T00:43:27.800Z,15.10
2022-08-20T00:45:57.344Z,15.00
2022-08-20T00:48:26.509Z,15.00
2022-08-20T00:50:59.438Z,15.10
2022-08-20T00:53:28.340Z,15.20
2022-08-20T00:55:56.011Z,15.30
2022-08-20T00:58:23.109Z,15.20
2022-08-20T01:00:50.383Z,15.20
2022-08-20T01:03:20.443Z,15.10
2022-08-20T01:05:50.534Z,15.00
2022-08-20T01:08:20.208Z,15.00
2022-08-20T01:10:49.737Z,15.00
2022-08-20T01:13:25.169Z,14.90
2022-08-20T01:15:56.162Z,14.90
2022-08-20T01:18:27.041Z,14.90
2022-08-20T01:21:00.137Z,14.80
2022-08-20T01:23:42.013Z,14.80
2022-08-20T01:26:26.274Z,14.70
2022-08-20T01:28:54.636Z,14.70
2022-08-20T01:31:28.033Z,14.70
2022-08-20T01:33:56.947Z,14.60
2022-08-20T01:36:31.412Z,14.50
2022-08-20T01:38:59.398Z,14.50
2022-08-20T01:41:30.807Z,14.50
2022-08-20T01:43:58.756Z,14.40
2022-08-20T01:46:46.969Z,14.30
2022-08-20T01:49:23.145Z,14.30
2022-08-20T01:51:55.126Z,14.20
2022-08-20T01:54:23.463Z,14.20
2022-08-20T01:57:03.507Z,14.10
2022-08-20T01:59:31.179Z,14.00
2022-08-20T02:01:59.043Z,14.10
2022-08-20T02:04:27.059Z,14.10
2022-08-20T02:06:58.588Z,14.10
2022-08-20T02:09:32.404Z,14.10
2022-08-20T02:12:00.758Z,14.10
2022-08-20T02:14:28.199Z,14.10
2022-08-20T02:16:58.329Z,14.10
2022-08-20T02:19:39.507Z,14.10
2022-08-20T02:22:34.386Z,14.10
2022-08-20T02:25:02.167Z,14.20
2022-08-20T02:27:29.050Z,14.10
2022-08-20T02:29:57.340Z,14.10
2022-08-20T02:32:33.845Z,14.10
2022-08-20T02:35:03.849Z,14.00
2022-08-20T02:37:31.068Z,14.00
2022-08-20T02:39:57.934Z,14.00
2022-08-20T02:42:25.111Z,14.10
2022-08-20T02:44:52.991Z,14.00
2022-08-20T02:47:19.897Z,14.00
2022-08-20T02:49:46.738Z,14.10
2022-08-20T02:52:13.522Z,14.00
2022-08-20T02:54:40.318Z,14.00
2022-08-20T02:57:13.488Z,14.00
2022-08-20T02:59:40.564Z,14.10
2022-08-20T03:02:07.359Z,14.10
2022-08-20T03:04:34.269Z,14.10
2022-08-20T03:07:01.392Z,14.20
2022-08-20T03:09:28.266Z,14.20
2022-08-20T03:11:55.319Z,14.10
2022-08-20T03:14:22.129Z,14.10
2022-08-20T03:16:49.178Z,14.10
2022-08-20T03:19:16.096Z,14.10
2022-08-20T03:21:43.015Z,14.10
2022-08-20T03:24:09.978Z,14.10
2022-08-20T03:26:36.864Z,14.00
2022-08-20T03:29:04.033Z,14.00
2022-08-20T03:31:30.881Z,14.00
2022-08-20T03:33:57.843Z,14.10
2022-08-20T03:36:28.451Z,14.10
2022-08-20T03:39:00.980Z,14.10
2022-08-20T03:41:29.142Z,14.10
2022-08-20T03:43:56.023Z,14.10
2022-08-20T03:46:23.941Z,14.10
2022-08-20T03:49:00.044Z,14.10
2022-08-20T03:51:31.669Z,14.10
2022-08-20T03:54:10.871Z,14.10
2022-08-20T03:56:37.685Z,14.00
2022-08-20T03:59:04.538Z,14.10
2022-08-20T04:01:45.438Z,14.10
2022-08-20T04:04:14.153Z,14.00
2022-08-20T04:06:42.504Z,14.00
2022-08-20T04:09:11.723Z,14.00
2022-08-20T04:11:39.776Z,14.00
2022-08-20T04:14:06.694Z,14.00
2022-08-20T04:16:34.417Z,13.90
2022-08-20T04:19:03.872Z,14.00
2022-08-20T04:21:33.222Z,14.00
2022-08-20T04:24:02.279Z,13.90
2022-08-20T04:26:29.425Z,13.90
2022-08-20T04:28:56.272Z,13.90
2022-08-20T04:31:33.137Z,13.90
2022-08-20T04:34:04.395Z,14.00
2022-08-20T04:36:31.606Z,14.00
2022-08-20T04:38:58.508Z,14.00
2022-08-20T04:41:25.341Z,14.00
2022-08-20T04:43:54.436Z,14.00
2022-08-20T04:46:25.416Z,14.10
2022-08-20T04:48:52.444Z,14.00
2022-08-20T04:51:22.862Z,14.00
2022-08-20T04:53:53.334Z,14.00
2022-08-20T04:56:27.092Z,13.90
2022-08-20T04:58:56.204Z,14.00
2022-08-20T05:01:24.090Z,13.90
2022-08-20T05:03:54.614Z,14.00
2022-08-20T05:06:32.276Z,14.00
2022-08-20T05:09:00.623Z,14.10
2022-08-20T05:11:33.854Z,14.20
2022-08-20T05:14:05.352Z,14.20
2022-08-20T05:16:37.671Z,14.30
2022-08-20T05:19:06.127Z,14.40
2022-08-20T05:21:32.953Z,14.50
2022-08-20T05:24:00.337Z,14.50
2022-08-20T05:26:27.309Z,14.50
2022-08-20T05:28:57.884Z,14.60
2022-08-20T05:31:32.692Z,14.70
2022-08-20T05:34:12.648Z,14.90
2022-08-20T05:36:49.293Z,15.10
2022-08-20T05:39:18.313Z,15.20
2022-08-20T05:41:45.375Z,15.30
2022-08-20T05:44:13.579Z,15.50
2022-08-20T05:46:42.706Z,15.60
2022-08-20T05:49:13.543Z,15.70
2022-08-20T05:51:40.692Z,15.80
2022-08-20T05:54:07.832Z,16.00
2022-08-20T05:56:35.029Z,16.10
2022-08-20T05:59:05.190Z,16.30
2022-08-20T06:01:33.614Z,16.50
2022-08-20T06:04:19.187Z,16.70
2022-08-20T06:06:47.356Z,16.80
2022-08-20T06:09:31.053Z,16.90
2022-08-20T06:12:01.146Z,16.90
2022-08-20T06:14:28.028Z,16.90
2022-08-20T06:16:57.713Z,16.90
2022-08-20T06:19:27.211Z,16.90
2022-08-20T06:21:59.776Z,16.90
2022-08-20T06:24:26.906Z,16.70
2022-08-20T06:26:58.801Z,16.70
2022-08-20T06:29:25.826Z,16.50
2022-08-20T06:31:52.822Z,16.40
2022-08-20T06:34:19.828Z,16.40
2022-08-20T06:36:47.672Z,16.50
2022-08-20T06:39:15.202Z,16.60
2022-08-20T06:41:42.200Z,16.70
2022-08-20T06:44:10.143Z,16.90
2022-08-20T06:46:37.958Z,17.00
2022-08-20T06:49:06.956Z,17.00
2022-08-20T06:51:34.756Z,17.10
2022-08-20T06:54:01.600Z,17.30
2022-08-20T06:56:28.464Z,17.50
2022-08-20T06:58:55.477Z,17.80
2022-08-20T07:01:22.348Z,18.00
2022-08-20T07:03:54.625Z,18.10
2022-08-20T07:06:25.006Z,18.30
2022-08-20T07:08:51.931Z,18.40
2022-08-20T07:11:24.958Z,18.60
2022-08-20T07:13:54.398Z,18.70
2022-08-20T07:16:21.256Z,18.80
2022-08-20T07:18:48.297Z,19.00
2022-08-20T07:21:17.566Z,19.10
2022-08-20T07:23:44.606Z,19.30
2022-08-20T07:26:12.842Z,19.40
2022-08-20T07:28:39.919Z,19.50
2022-08-20T07:31:25.516Z,19.70
2022-08-20T07:33:53.876Z,20.00
2022-08-20T07:36:21.457Z,20.10
2022-08-20T07:38:50.908Z,20.20
2022-08-20T07:41:18.791Z,20.20
2022-08-20T07:43:46.570Z,20.20
2022-08-20T07:46:20.613Z,20.30
2022-08-20T07:48:50.355Z,20.50
2022-08-20T07:51:22.862Z,20.80
2022-08-20T07:53:51.637Z,21.00
2022-08-20T07:56:24.345Z,21.10
2022-08-20T07:58:55.198Z,21.20
2022-08-20T08:01:29.791Z,21.20
2022-08-20T08:03:57.852Z,21.30
2022-08-20T08:06:29.699Z,21.30
2022-08-20T08:09:13.798Z,21.20
2022-08-20T08:11:48.961Z,21.40
2022-08-20T08:14:21.346Z,21.50
2022-08-20T08:16:48.209Z,21.60
2022-08-20T08:19:17.396Z,21.80
2022-08-20T08:21:44.773Z,22.00
2022-08-20T08:24:14.519Z,22.10
2022-08-20T08:26:46.174Z,22.20
2022-08-20T08:29:13.465Z,22.30
2022-08-20T08:31:41.299Z,22.40
2022-08-20T08:34:08.927Z,22.50
2022-08-20T08:36:35.716Z,22.60
2022-08-20T08:39:02.577Z,22.80
2022-08-20T08:41:29.492Z,22.80
2022-08-20T08:44:12.858Z,22.90
2022-08-20T08:46:42.954Z,23.00
2022-08-20T08:49:16.510Z,23.00
2022-08-20T08:51:50.078Z,23.20
2022-08-20T08:54:22.155Z,23.40
2022-08-20T08:56:50.189Z,23.50
2022-08-20T08:59:19.072Z,23.70
2022-08-20T09:01:57.706Z,23.70
2022-08-20T09:04:32.797Z,23.70
2022-08-20T09:07:01.961Z,23.60
2022-08-20T09:09:35.602Z,23.20
2022-08-20T09:12:09.557Z,23.10
2022-08-20T09:14:37.339Z,23.00
2022-08-20T09:17:04.742Z,23.10
2022-08-20T09:19:31.970Z,23.10
2022-08-20T09:21:58.943Z,23.20
2022-08-20T09:24:25.903Z,23.30
2022-08-20T09:26:52.846Z,23.50
2022-08-20T09:29:19.707Z,23.60
2022-08-20T09:31:47.883Z,23.80
2022-08-20T09:34:15.310Z,23.80
2022-08-20T09:36:42.156Z,23.80
2022-08-20T09:39:09.976Z,23.90
2022-08-20T09:41:36.873Z,24.00
2022-08-20T09:44:03.931Z,24.30
2022-08-20T09:46:30.756Z,24.50
2022-08-20T09:48:57.537Z,24.70
2022-08-20T09:51:24.417Z,24.80
2022-08-20T09:53:51.434Z,24.90
2022-08-20T09:56:18.595Z,24.90
2022-08-20T09:58:55.097Z,25.00
2022-08-20T10:01:23.146Z,25.00
2022-08-20T10:03:51.021Z,25.10
2022-08-20T10:06:20.341Z,25.10
2022-08-20T10:08:48.918Z,25.10
2022-08-20T10:11:16.314Z,25.10
2022-08-20T10:13:45.154Z,25.10
2022-08-20T10:16:12.105Z,25.00
2022-08-20T10:18:38.899Z,25.00
2022-08-20T10:21:12.631Z,25.10
2022-08-20T10:23:39.619Z,25.20
2022-08-20T10:26:08.314Z,25.30
2022-08-20T10:28:35.744Z,25.50
2022-08-20T10:31:04.650Z,25.60
2022-08-20T10:33:31.503Z,25.40
2022-08-20T10:36:05.447Z,25.30
2022-08-20T10:38:32.280Z,25.30
2022-08-20T10:40:59.107Z,25.40
2022-08-20T10:43:26.174Z,25.50
2022-08-20T10:45:53.022Z,25.40
2022-08-20T10:48:21.638Z,25.30
2022-08-20T10:50:49.751Z,25.20
2022-08-20T10:53:16.967Z,24.80
2022-08-20T10:55:44.302Z,24.30
2022-08-20T10:58:13.066Z,24.00
2022-08-20T11:00:41.500Z,23.70
2022-08-20T11:03:08.426Z,23.50
2022-08-20T11:05:35.349Z,23.40
2022-08-20T11:08:03.791Z,23.20
2022-08-20T11:10:34.021Z,23.20
2022-08-20T11:13:02.347Z,23.20
2022-08-20T11:15:29.307Z,23.20
2022-08-20T11:17:57.033Z,23.20
2022-08-20T11:20:26.279Z,23.20
2022-08-20T11:22:54.602Z,23.20
2022-08-20T11:25:21.573Z,23.10
2022-08-20T11:27:51.054Z,23.10
2022-08-20T11:30:28.770Z,23.10
2022-08-20T11:32:57.099Z,23.30
2022-08-20T11:35:42.207Z,23.50
2022-08-20T11:38:12.733Z,23.50
2022-08-20T11:40:39.754Z,23.50
2022-08-20T11:43:15.569Z,23.50
2022-08-20T11:45:46.154Z,23.70
2022-08-20T11:48:13.170Z,24.00
2022-08-20T11:50:40.359Z,24.20
2022-08-20T11:53:07.921Z,24.30
2022-08-20T11:55:35.428Z,24.40
2022-08-20T11:58:02.987Z,24.50
2022-08-20T12:00:32.872Z,24.60
2022-08-20T12:03:05.365Z,24.80
2022-08-20T12:05:32.912Z,24.90
2022-08-20T12:08:03.308Z,25.00
2022-08-20T12:10:31.037Z,25.10
2022-08-20T12:12:58.722Z,25.10
2022-08-20T12:15:27.452Z,25.00
2022-08-20T12:17:55.254Z,25.00
2022-08-20T12:20:23.635Z,25.00
2022-08-20T12:22:50.905Z,25.20
2022-08-20T12:25:17.856Z,25.20
2022-08-20T12:27:45.533Z,25.10
2022-08-20T12:30:16.973Z,25.10
2022-08-20T12:32:44.644Z,25.10
2022-08-20T12:35:14.643Z,25.10
2022-08-20T12:37:42.297Z,25.20
2022-08-20T12:40:17.194Z,25.20
2022-08-20T12:42:52.471Z,25.30
2022-08-20T12:45:21.315Z,25.30
2022-08-20T12:47:49.742Z,25.30
2022-08-20T12:50:22.538Z,25.30
2022-08-20T12:52:49.957Z,25.20
2022-08-20T12:55:19.441Z,25.10
2022-08-20T12:57:54.050Z,25.20
2022-08-20T13:00:36.203Z,25.20
2022-08-20T13:03:05.948Z,25.30
2022-08-20T13:05:34.281Z,25.20
2022-08-20T13:08:01.583Z,25.10
2022-08-20T13:10:35.539Z,25.20
2022-08-20T13:13:03.628Z,25.20
2022-08-20T13:15:32.170Z,25.30
2022-08-20T13:18:01.230Z,25.20
2022-08-20T13:20:31.701Z,25.20
2022-08-20T13:23:05.923Z,25.20
2022-08-20T13:25:33.679Z,25.20
2022-08-20T13:28:04.351Z,25.10
2022-08-20T13:30:33.894Z,24.90
2022-08-20T13:33:01.062Z,24.90
2022-08-20T13:35:28.366Z,25.00
2022-08-20T13:37:55.393Z,25.10
2022-08-20T13:40:22.399Z,25.10
2022-08-20T13:42:49.363Z,25.20
2022-08-20T13:45:16.532Z,25.20
2022-08-20T13:47:43.863Z,25.20
2022-08-20T13:50:15.269Z,25.20
2022-08-20T13:52:43.210Z,25.20
2022-08-20T13:55:11.034Z,25.40
2022-08-20T13:57:38.534Z,25.30
2022-08-20T14:00:10.034Z,25.30
2022-08-20T14:02:37.994Z,25.40
2022-08-20T14:05:05.135Z,25.40
2022-08-20T14:07:32.954Z,25.40
2022-08-20T14:10:06.391Z,25.40
2022-08-20T14:12:33.381Z,25.40
2022-08-20T14:15:00.295Z,25.30
2022-08-20T14:17:32.867Z,25.30
2022-08-20T14:20:04.007Z,25.20
2022-08-20T14:22:31.484Z,25.10
2022-08-20T14:25:02.614Z,25.00
2022-08-20T14:27:32.769Z,24.90
2022-08-20T14:30:00.509Z,24.80
2022-08-20T14:32:28.073Z,24.90
2022-08-20T14:34:57.070Z,24.90
2022-08-20T14:37:30.338Z,24.90
2022-08-20T14:39:59.920Z,24.90
2022-08-20T14:42:28.370Z,24.90
2022-08-20T14:44:56.762Z,24.90
2022-08-20T14:47:29.682Z,24.90
2022-08-20T14:50:03.072Z,24.80
2022-08-20T14:52:36.516Z,24.80
2022-08-20T14:55:05.840Z,24.60
2022-08-20T14:57:33.871Z,24.50
2022-08-20T15:00:00.949Z,24.40
2022-08-20T15:02:27.817Z,24.40
2022-08-20T15:04:55.560Z,24.40
2022-08-20T15:07:28.540Z,24.50
2022-08-20T15:09:56.311Z,24.50
2022-08-20T15:12:24.488Z,24.50
2022-08-20T15:14:51.422Z,24.50
2022-08-20T15:17:23.999Z,24.30
2022-08-20T15:19:50.971Z,24.40
2022-08-20T15:22:19.403Z,24.50
2022-08-20T15:24:46.300Z,24.50
2022-08-20T15:27:22.272Z,24.50
2022-08-20T15:29:51.136Z,24.60
2022-08-20T15:32:18.625Z,24.60
2022-08-20T15:34:46.003Z,24.60
2022-08-20T15:37:16.653Z,24.70
2022-08-20T15:39:44.505Z,24.60
2022-08-20T15:42:12.911Z,24.60
2022-08-20T15:44:41.110Z,24.50
2022-08-20T15:47:22.444Z,24.50
2022-08-20T15:49:52.840Z,24.50
2022-08-20T15:52:19.829Z,24.30
2022-08-20T15:54:47.732Z,24.20
2022-08-20T15:58:08.518Z,24.20
2022-08-20T16:01:25.252Z,24.20
2022-08-20T16:04:01.752Z,24.20
2022-08-20T16:06:31.959Z,24.30
2022-08-20T16:09:14.318Z,24.30
2022-08-20T16:12:05.870Z,24.30
2022-08-20T16:14:39.115Z,24.20
2022-08-20T16:17:16.963Z,24.20
2022-08-20T16:20:02.626Z,24.10
2022-08-20T16:22:31.595Z,24.00
2022-08-20T16:24:58.577Z,23.80
2022-08-20T16:27:43.991Z,23.70
2022-08-20T16:30:21.926Z,23.70
2022-08-20T16:33:01.365Z,23.70
2022-08-20T16:35:35.614Z,23.70
2022-08-20T16:38:21.117Z,23.70
2022-08-20T16:40:54.199Z,23.60
2022-08-20T16:43:33.786Z,23.50
2022-08-20T16:46:05.637Z,23.40
2022-08-20T16:48:43.789Z,23.40
2022-08-20T16:51:18.609Z,23.40
2022-08-20T16:53:45.691Z,23.40
2022-08-20T16:56:13.066Z,23.50
2022-08-20T16:58:39.834Z,23.40
2022-08-20T17:01:14.156Z,23.40
2022-08-20T17:03:49.848Z,23.40
2022-08-20T17:06:26.630Z,23.30
2022-08-20T17:08:54.014Z,23.20
2022-08-20T17:11:33.170Z,23.20
2022-08-20T17:14:12.486Z,23.10
2022-08-20T17:16:48.932Z,23.10
2022-08-20T17:19:24.802Z,23.10
2022-08-20T17:21:51.811Z,23.00
2022-08-20T17:24:26.971Z,23.00
2022-08-20T17:27:11.220Z,22.90
2022-08-20T17:29:51.463Z,22.80
2022-08-20T17:32:23.563Z,22.60
2022-08-20T17:34:56.048Z,22.30
2022-08-20T17:37:29.093Z,22.20
2022-08-20T17:40:06.595Z,22.10
2022-08-20T17:42:44.522Z,22.00
2022-08-20T17:45:34.356Z,22.00
2022-08-20T17:48:03.347Z,22.00
2022-08-20T17:50:35.223Z,22.00
2022-08-20T17:53:23.325Z,22.00
2022-08-20T17:56:01.719Z,22.00
2022-08-20T17:59:00.210Z,22.00
2022-08-20T18:01:30.470Z,22.00
2022-08-20T18:03:58.347Z,22.00
2022-08-20T18:06:34.013Z,21.90
2022-08-20T18:09:08.986Z,21.80
2022-08-20T18:11:43.820Z,21.70
2022-08-20T18:14:21.098Z,21.60
2022-08-20T18:17:12.951Z,21.50
2022-08-20T18:20:09.817Z,21.50
2022-08-20T18:22:49.702Z,21.40
2022-08-20T18:25:55.290Z,21.20
2022-08-20T18:28:33.209Z,21.10
2022-08-20T18:31:07.290Z,21.00
2022-08-20T18:33:37.893Z,20.80
2022-08-20T18:36:09.338Z,20.70
2022-08-20T18:38:41.773Z,20.60
2022-08-20T18:41:39.440Z,20.50
2022-08-20T18:44:06.282Z,20.30
2022-08-20T18:46:33.669Z,20.20
2022-08-20T18:49:05.668Z,20.10
2022-08-20T18:51:42.695Z,19.90
2022-08-20T18:54:21.875Z,19.70
2022-08-20T18:56:48.743Z,19.60
2022-08-20T18:59:19.883Z,19.40
2022-08-20T19:01:49.448Z,19.40
2022-08-20T19:04:31.857Z,19.20
2022-08-20T19:07:04.806Z,19.00
2022-08-20T19:09:45.886Z,19.00
2022-08-20T19:12:52.957Z,18.90
2022-08-20T19:15:22.565Z,18.80
2022-08-20T19:18:09.126Z,18.70
2022-08-20T19:20:39.274Z,18.60
2022-08-20T19:23:19.603Z,18.50
2022-08-20T19:25:59.877Z,18.50
2022-08-20T19:28:40.968Z,18.50
2022-08-20T19:31:15.553Z,18.50
2022-08-20T19:33:46.968Z,18.40
2022-08-20T19:36:15.891Z,18.40
2022-08-20T19:38:48.500Z,18.30
2022-08-20T19:41:30.915Z,18.30
2022-08-20T19:43:59.988Z,18.20
2022-08-20T19:46:43.606Z,18.20
2022-08-20T19:49:43.362Z,18.10
2022-08-20T19:52:31.724Z,18.00
2022-08-20T19:55:03.315Z,17.90
2022-08-20T19:57:31.286Z,17.80
2022-08-20T20:00:08.528Z,17.70
2022-08-20T20:02:35.755Z,17.60
2022-08-20T20:05:10.326Z,17.60
2022-08-20T20:07:44.372Z,17.60
2022-08-20T20:10:32.930Z,17.60
2022-08-20T20:13:21.332Z,17.60
2022-08-20T20:15:52.230Z,17.70
2022-08-20T20:18:19.568Z,17.70
2022-08-20T20:20:57.774Z,17.70
2022-08-20T20:23:45.653Z,17.70
2022-08-20T20:26:17.492Z,17.70
2022-08-20T20:28:48.175Z,17.70
2022-08-20T20:31:23.423Z,17.70
2022-08-20T20:33:54.274Z,17.70
2022-08-20T20:36:41.877Z,17.60
2022-08-20T20:39:33.755Z,17.60
2022-08-20T20:42:02.590Z,17.60
2022-08-20T20:44:40.887Z,17.60
2022-08-20T20:47:19.320Z,17.60
2022-08-20T20:49:58.231Z,17.60
2022-08-20T20:52:30.516Z,17.50
2022-08-20T20:55:12.258Z,17.50
2022-08-20T20:57:39.694Z,17.40
2022-08-20T21:00:11.567Z,17.20
2022-08-20T21:02:38.380Z,17.20
2022-08-20T21:05:05.644Z,17.20
2022-08-20T21:07:32.560Z,17.10
2022-08-20T21:09:59.453Z,17.10
2022-08-20T21:12:26.399Z,17.00
2022-08-20T21:14:53.228Z,17.00
2022-08-20T21:17:22.669Z,16.90
2022-08-20T21:19:51.214Z,16.80
2022-08-20T21:22:19.953Z,16.70
2022-08-20T21:24:51.183Z,16.60
2022-08-20T21:27:23.575Z,16.50
2022-08-20T21:29:50.952Z,16.30
2022-08-20T21:32:18.235Z,16.30
2022-08-20T21:34:45.774Z,16.30
2022-08-20T21:37:13.666Z,16.30
2022-08-20T21:39:41.231Z,16.30
2022-08-20T21:42:28.790Z,16.30
2022-08-20T21:44:57.271Z,16.20
2022-08-20T21:47:24.545Z,16.10
2022-08-20T21:49:51.811Z,16.10
2022-08-20T21:52:18.988Z,16.00
2022-08-20T21:54:46.020Z,15.90
2022-08-20T21:57:22.699Z,15.90
2022-08-20T21:59:50.028Z,15.80
2022-08-20T22:02:18.213Z,15.70
2022-08-20T22:04:45.143Z,15.60
2022-08-20T22:07:12.735Z,15.60
2022-08-20T22:09:39.786Z,15.50
2022-08-20T22:12:20.168Z,15.50
2022-08-20T22:14:47.571Z,15.40
2022-08-20T22:17:15.228Z,15.30
2022-08-20T22:19:42.562Z,15.30
2022-08-20T22:22:10.913Z,15.20
2022-08-20T22:24:39.012Z,15.10
2022-08-20T22:27:06.203Z,15.10
2022-08-20T22:29:33.419Z,15.10
2022-08-20T22:32:00.878Z,15.00
2022-08-20T22:34:31.254Z,15.00
2022-08-20T22:36:59.531Z,14.80
2022-08-20T22:39:26.929Z,14.70
2022-08-20T22:41:53.936Z,14.60
2022-08-20T22:44:21.099Z,14.40
2022-08-20T22:46:51.605Z,14.40
2022-08-20T22:49:25.907Z,14.30
2022-08-20T22:51:52.946Z,14.30
2022-08-20T22:54:21.804Z,14.20
2022-08-20T22:56:49.431Z,14.10
2022-08-20T22:59:18.104Z,14.10
2022-08-20T23:01:46.298Z,14.00
2022-08-20T23:04:21.744Z,13.90
2022-08-20T23:06:48.626Z,13.80
2022-08-20T23:09:15.419Z,13.80
2022-08-20T23:11:49.300Z,13.80
2022-08-20T23:14:16.382Z,13.80
2022-08-20T23:16:46.226Z,13.70
2022-08-20T23:19:23.309Z,13.70
2022-08-20T23:21:51.736Z,13.70
2022-08-20T23:24:19.242Z,13.70
2022-08-20T23:26:52.593Z,13.60
2022-08-20T23:29:25.123Z,13.60
2022-08-20T23:31:53.218Z,13.60
2022-08-20T23:34:20.011Z,13.60
2022-08-20T23:36:47.305Z,13.50
2022-08-20T23:39:14.223Z,13.50
2022-08-20T23:41:43.081Z,13.50
2022-08-20T23:44:26.138Z,13.50
2022-08-20T23:46:59.508Z,13.40
2022-08-20T23:49:27.972Z,13.50
2022-08-20T23:51:55.363Z,13.40
2022-08-20T23:54:22.262Z,13.40
2022-08-20T23:56:49.570Z,13.40
2022-08-20T23:59:16.457Z,13.30
